Boras — TCGU — position and weather

sailwx.info

Track history (hours):
 
Tides and Currents Weather Stations Pressure Air Temp Water Temp Dewpoint Dewpoint Depression Visibility Wind Speed Wind Dir Waves Ship Positions

Boras

Last reported at 2014-Aug-26 15:33 UTC. Time now 2014-Sep-01 21:01 UTC.
Position N 35°01' E 034°21'.

Length 103 m; draft 4.2 m.

Type: Cargo ship. MMSI: 271000352.

Date/timePositionNaut miles runAvg speedWind from/ knotsBaromVisibWave heightAir tempDewpointWater temp
2014-Aug-26 15:33N 35°01' E 034°21'12 9.2
2014-Aug-26 14:17N 34°49' E 034°18'7 9.3
2014-Aug-26 13:33N 34°43' E 034°15'19 9.5
2014-Aug-26 11:33N 34°25' E 034°09'9 9.3
2014-Aug-26 10:33N 34°15' E 034°07'8 8.2
2014-Aug-26 09:33N 34°08' E 034°09'9 8.7
2014-Aug-26 08:33N 34°01' E 034°17'9 8.8
2014-Aug-26 07:33N 33°53' E 034°18'9 8.8
2014-Aug-26 06:33N 33°44' E 034°19'45 8.8
2014-Aug-26 01:28N 32°59' E 034°25'19 8.3
2014-Aug-25 23:09N 32°55' E 034°47'8 8.9
2014-Aug-25 22:18N 32°53' E 034°56'6 7.6
2014-Aug-25 21:29N 32°49' E 035°01'1 0.1
2014-Aug-25 14:32N 32°49' E 035°02'0 0.0
2014-Aug-25 10:10N 32°49' E 035°02'0 0.0
2014-Aug-25 09:31N 32°49' E 035°02'0 0.0
2014-Aug-25 06:12N 32°49' E 035°02'0 0.0
2014-Aug-25 05:31N 32°49' E 035°02'0 0.0
2014-Aug-25 04:33N 32°49' E 035°02'0 0.0
2014-Aug-25 03:33N 32°49' E 035°02'0 0.0
2014-Aug-25 02:32N 32°49' E 035°02'0 0.0
2014-Aug-24 23:30N 32°49' E 035°02'0 0.0
2014-Aug-24 22:33N 32°49' E 035°02'0 0.0
2014-Aug-24 21:33N 32°49' E 035°02'0 0.0
2014-Aug-24 20:33N 32°49' E 035°02'0 0.0
2014-Aug-24 19:15N 32°49' E 035°02'0 0.0
2014-Aug-24 16:25N 32°49' E 035°02'0 0.0
2014-Aug-24 15:33N 32°49' E 035°02'0 0.0
2014-Aug-24 10:05N 32°49' E 035°02'4 0.8
2014-Aug-24 05:25N 32°52' E 034°60'4 4.3
2014-Aug-24 04:32N 32°53' E 034°55'8 8.0
2014-Aug-24 03:33N 32°55' E 034°46'41 8.2
2014-Aug-23 22:29N 33°03' E 033°58'7 7.8
2014-Aug-23 21:33N 33°08' E 033°52'15 7.7
2014-Aug-23 19:33N 33°18' E 033°38'  
2014-Aug-21 11:33N 37°27' E 026°49'25 8.3
2014-Aug-21 08:33N 37°44' E 026°26'8 8.3
2014-Aug-21 07:33N 37°50' E 026°18'34 7.6
2014-Aug-21 03:07N 38°14' E 025°48'5 7.8
2014-Aug-21 02:32N 38°18' E 025°47'9 7.7
2014-Aug-21 01:25N 38°27' E 025°45'22 7.7
2014-Aug-20 22:31N 38°49' E 025°43'23 7.6
2014-Aug-20 19:29N 39°12' E 025°44'175 6.7
2014-Aug-19 17:30N 40°45' E 028°58'8 8.1
2014-Aug-19 16:33N 40°47' E 029°07'7 6.6
2014-Aug-19 15:34N 40°52' E 029°12'0 0.2
2014-Aug-19 14:33N 40°53' E 029°12'4 4.3
2014-Aug-19 13:33N 40°48' E 029°13'8 7.7
2014-Aug-19 12:30N 40°45' E 029°23'5 0.1
2014-Aug-17 12:19N 40°45' E 029°30'7 8.9
2014-Aug-17 11:33N 40°45' E 029°21'4 3.7
2014-Aug-17 10:33N 40°46' E 029°16'1 0.5
2014-Aug-17 09:33N 40°46' E 029°15'0 0.3
2014-Aug-17 08:32N 40°46' E 029°15'3 2.9
2014-Aug-17 07:33N 40°47' E 029°11'7 7.3
2014-Aug-17 06:33N 40°50' E 029°03'8 7.7
2014-Aug-17 05:30N 40°57' E 028°56'1 0.6
2014-Aug-17 03:19N 40°58' E 028°56'0 0.0
2014-Aug-16 21:22N 40°58' E 028°56'0 0.0
2014-Aug-16 19:03N 40°58' E 028°56'0 0.0
2014-Aug-16 18:28N 40°58' E 028°56'0 0.0
2014-Aug-16 17:24N 40°58' E 028°56'  
Track history (hours):
 
Tides and Currents Weather Stations Pressure Air Temp Water Temp Dewpoint Dewpoint Depression Visibility Wind Speed Wind Dir Waves Ship Positions

Boras

Last reported at 2014-Aug-26 15:33 UTC. Time now 2014-Sep-01 21:01 UTC.
Position N 35°01' E 034°21'.

Length 103 m; draft 4.2 m.

Type: Cargo ship. MMSI: 271000352.

Date/timePositionNaut miles runAvg speedWind from/ knotsBaromVisibWave heightAir tempDewpointWater temp
2014-Aug-26 15:33N 35°01' E 034°21'12 9.2
2014-Aug-26 14:17N 34°49' E 034°18'7 9.3
2014-Aug-26 13:33N 34°43' E 034°15'19 9.5
2014-Aug-26 11:33N 34°25' E 034°09'9 9.3
2014-Aug-26 10:33N 34°15' E 034°07'8 8.2
2014-Aug-26 09:33N 34°08' E 034°09'9 8.7
2014-Aug-26 08:33N 34°01' E 034°17'9 8.8
2014-Aug-26 07:33N 33°53' E 034°18'9 8.8
2014-Aug-26 06:33N 33°44' E 034°19'45 8.8
2014-Aug-26 01:28N 32°59' E 034°25'19 8.3
2014-Aug-25 23:09N 32°55' E 034°47'8 8.9
2014-Aug-25 22:18N 32°53' E 034°56'6 7.6
2014-Aug-25 21:29N 32°49' E 035°01'1 0.1
2014-Aug-25 14:32N 32°49' E 035°02'0 0.0
2014-Aug-25 10:10N 32°49' E 035°02'0 0.0
2014-Aug-25 09:31N 32°49' E 035°02'0 0.0
2014-Aug-25 06:12N 32°49' E 035°02'0 0.0
2014-Aug-25 05:31N 32°49' E 035°02'0 0.0
2014-Aug-25 04:33N 32°49' E 035°02'0 0.0
2014-Aug-25 03:33N 32°49' E 035°02'0 0.0
2014-Aug-25 02:32N 32°49' E 035°02'0 0.0
2014-Aug-24 23:30N 32°49' E 035°02'0 0.0
2014-Aug-24 22:33N 32°49' E 035°02'0 0.0
2014-Aug-24 21:33N 32°49' E 035°02'0 0.0
2014-Aug-24 20:33N 32°49' E 035°02'0 0.0
2014-Aug-24 19:15N 32°49' E 035°02'0 0.0
2014-Aug-24 16:25N 32°49' E 035°02'0 0.0
2014-Aug-24 15:33N 32°49' E 035°02'0 0.0
2014-Aug-24 10:05N 32°49' E 035°02'4 0.8
2014-Aug-24 05:25N 32°52' E 034°60'4 4.3
2014-Aug-24 04:32N 32°53' E 034°55'8 8.0
2014-Aug-24 03:33N 32°55' E 034°46'41 8.2
2014-Aug-23 22:29N 33°03' E 033°58'7 7.8
2014-Aug-23 21:33N 33°08' E 033°52'15 7.7
2014-Aug-23 19:33N 33°18' E 033°38'  
2014-Aug-21 11:33N 37°27' E 026°49'25 8.3
2014-Aug-21 08:33N 37°44' E 026°26'8 8.3
2014-Aug-21 07:33N 37°50' E 026°18'34 7.6
2014-Aug-21 03:07N 38°14' E 025°48'5 7.8
2014-Aug-21 02:32N 38°18' E 025°47'9 7.7
2014-Aug-21 01:25N 38°27' E 025°45'22 7.7
2014-Aug-20 22:31N 38°49' E 025°43'23 7.6
2014-Aug-20 19:29N 39°12' E 025°44'175 6.7
2014-Aug-19 17:30N 40°45' E 028°58'8 8.1
2014-Aug-19 16:33N 40°47' E 029°07'7 6.6
2014-Aug-19 15:34N 40°52' E 029°12'0 0.2
2014-Aug-19 14:33N 40°53' E 029°12'4 4.3
2014-Aug-19 13:33N 40°48' E 029°13'8 7.7
2014-Aug-19 12:30N 40°45' E 029°23'5 0.1
2014-Aug-17 12:19N 40°45' E 029°30'7 8.9
2014-Aug-17 11:33N 40°45' E 029°21'4 3.7
2014-Aug-17 10:33N 40°46' E 029°16'1 0.5
2014-Aug-17 09:33N 40°46' E 029°15'0 0.3
2014-Aug-17 08:32N 40°46' E 029°15'3 2.9
2014-Aug-17 07:33N 40°47' E 029°11'7 7.3
2014-Aug-17 06:33N 40°50' E 029°03'8 7.7
2014-Aug-17 05:30N 40°57' E 028°56'1 0.6
2014-Aug-17 03:19N 40°58' E 028°56'0 0.0
2014-Aug-16 21:22N 40°58' E 028°56'0 0.0
2014-Aug-16 19:03N 40°58' E 028°56'0 0.0
2014-Aug-16 18:28N 40°58' E 028°56'0 0.0
2014-Aug-16 17:24N 40°58' E 028°56'  

Dump ship's entire track history